Terminal Aerodrome Forecast
Issued by NWS Greer, SC

Home | Current Version | Previous Version | Text Only | Print | Product List | Glossary On
Versions: 1 2 3 4 5 6 7 8 9 10 11 12 13 14
000
FTUS42 KGSP 240537
TAFGSP
TAF
KGSP 240537Z 2406/2506 23005KT P6SM SCT008 BKN150
      TEMPO 2407/2410 6SM BR BKN008
     FM241200 25004KT P6SM SCT250
     FM241700 23005KT P6SM SCT050 PROB30 2420/2424 4SM -TSRA
      BKN050CB
     FM250000 23005KT P6SM SCT250=

USA.gov is the U.S. government's official web portal to all federal, state and local government web resources and services.